Wetterdaten: Woche 05.12.11 - 11.12.11 (KW49)
Datum Zeit Temperatur Luftfeuchte Luftdruck Niederschlag Windrichtung Sonnenschein Solar Wind
05.12.2011 00:00 10,7 C 81 % 997,2 hPa 0,0 l/m W-SW 0,00 h 0 W/m 43,1 km/h (6 Bft)
05.12.2011 01:00 9,9 C 86 % 996,3 hPa 0,8 l/m W-SW 0,00 h 0 W/m 46,8 km/h (6 Bft)
05.12.2011 02:00 9,3 C 91 % 995,5 hPa 1,2 l/m W-SW 0,00 h 0 W/m 47,8 km/h (6 Bft)
05.12.2011 03:00 6,7 C 90 % 997,5 hPa 6,8 l/m W-NW 0,00 h 0 W/m 31,5 km/h (5 Bft)
05.12.2011 04:00 4,5 C 95 % 999,2 hPa 1,0 l/m W 0,00 h 0 W/m 15,6 km/h (3 Bft)
05.12.2011 05:00 4,3 C 95 % 1000,6 hPa 0,0 l/m W-SW 0,00 h 0 W/m 17,3 km/h (3 Bft)
05.12.2011 06:00 4,4 C 94 % 1001,9 hPa 0,0 l/m W-SW 0,00 h 0 W/m 16,4 km/h (3 Bft)
05.12.2011 07:00 4,5 C 93 % 1003,0 hPa 0,0 l/m W-SW 0,00 h 5 W/m 20,2 km/h (4 Bft)
05.12.2011 08:00 4,5 C 94 % 1004,1 hPa 0,2 l/m W 0,00 h 15 W/m 18,2 km/h (3 Bft)
05.12.2011 09:00 2,5 C 92 % 1006,2 hPa 0,4 l/m NW 0,00 h 22 W/m 18,1 km/h (3 Bft)
05.12.2011 10:00 1,9 C 94 % 1007,4 hPa 1,0 l/m W-NW 0,00 h 56 W/m 15,7 km/h (3 Bft)
05.12.2011 11:00 2,7 C 92 % 1008,2 hPa 0,8 l/m W 0,00 h 81 W/m 17,7 km/h (3 Bft)
05.12.2011 12:00 3,6 C 86 % 1008,5 hPa 0,0 l/m W 0,58 h 242 W/m 19,0 km/h (3 Bft)
05.12.2011 13:00 3,6 C 80 % 1008,9 hPa 0,0 l/m W-SW 0,00 h 68 W/m 19,0 km/h (3 Bft)
05.12.2011 14:00 3,9 C 80 % 1009,4 hPa 0,0 l/m W-SW 0,17 h 98 W/m 11,8 km/h (2 Bft)
05.12.2011 15:00 3,7 C 77 % 1009,6 hPa 0,0 l/m W-SW 0,42 h 70 W/m 15,6 km/h (3 Bft)
05.12.2011 16:00 3,0 C 77 % 1010,3 hPa 0,0 l/m W-SW 0,08 h 11 W/m 14,2 km/h (3 Bft)
05.12.2011 17:00 2,7 C 80 % 1010,5 hPa 0,0 l/m W-SW 0,00 h 0 W/m 15,0 km/h (3 Bft)
05.12.2011 18:00 2,4 C 88 % 1011,1 hPa 0,0 l/m SW 0,00 h 0 W/m 14,1 km/h (3 Bft)
05.12.2011 19:00 2,3 C 87 % 1011,7 hPa 0,0 l/m W-SW 0,00 h 0 W/m 18,2 km/h (3 Bft)
05.12.2011 20:00 2,1 C 87 % 1011,7 hPa 0,0 l/m W-SW 0,00 h 0 W/m 22,9 km/h (4 Bft)
05.12.2011 21:00 2,4 C 85 % 1011,6 hPa 0,0 l/m W-SW 0,00 h 0 W/m 26,8 km/h (4 Bft)
05.12.2011 22:00 2,7 C 82 % 1011,3 hPa 0,0 l/m W-SW 0,00 h 0 W/m 25,5 km/h (4 Bft)
05.12.2011 23:00 2,5 C 82 % 1011,2 hPa 0,0 l/m W-SW 0,00 h 0 W/m 18,6 km/h (3 Bft)
06.12.2011 00:00 2,1 C 84 % 1010,9 hPa 0,0 l/m SW 0,00 h 0 W/m 16,2 km/h (3 Bft)
06.12.2011 01:00 1,6 C 86 % 1010,7 hPa 0,0 l/m SW 0,00 h 0 W/m 14,2 km/h (3 Bft)
06.12.2011 02:00 2,2 C 86 % 1010,6 hPa 0,0 l/m W 0,00 h 0 W/m 24,3 km/h (4 Bft)
06.12.2011 03:00 2,6 C 85 % 1010,3 hPa 0,0 l/m W-SW 0,00 h 0 W/m 24,5 km/h (4 Bft)
06.12.2011 04:00 2,6 C 86 % 1010,0 hPa 0,0 l/m W-SW 0,00 h 0 W/m 26,7 km/h (4 Bft)
06.12.2011 05:00 2,8 C 87 % 1010,1 hPa 0,0 l/m W-SW 0,00 h 0 W/m 25,2 km/h (4 Bft)
06.12.2011 06:00 2,8 C 89 % 1010,0 hPa 0,0 l/m W-SW 0,00 h 0 W/m 25,5 km/h (4 Bft)
06.12.2011 07:00 2,5 C 91 % 1010,3 hPa 0,4 l/m SW 0,00 h 0 W/m 23,7 km/h (4 Bft)
06.12.2011 08:00 2,3 C 94 % 1010,6 hPa 0,0 l/m SW 0,00 h 10 W/m 19,7 km/h (3 Bft)
06.12.2011 09:00 2,5 C 93 % 1011,0 hPa 0,4 l/m W-SW 0,00 h 22 W/m 25,2 km/h (4 Bft)
06.12.2011 10:00 2,0 C 94 % 1011,5 hPa 0,6 l/m SW 0,00 h 26 W/m 12,5 km/h (3 Bft)
06.12.2011 11:00 2,4 C 96 % 1011,4 hPa 0,0 l/m SW 0,00 h 81 W/m 21,9 km/h (4 Bft)
06.12.2011 12:00 3,5 C 93 % 1011,4 hPa 0,0 l/m W 0,00 h 92 W/m 23,7 km/h (4 Bft)
06.12.2011 13:00 3,5 C 91 % 1011,2 hPa 0,0 l/m W-SW 0,08 h 72 W/m 20,9 km/h (4 Bft)
06.12.2011 14:00 3,3 C 93 % 1011,2 hPa 0,4 l/m W 0,00 h 69 W/m 19,6 km/h (3 Bft)
06.12.2011 15:00 3,6 C 92 % 1011,1 hPa 0,8 l/m W-SW 0,00 h 18 W/m 22,0 km/h (4 Bft)
06.12.2011 16:00 2,6 C 94 % 1011,3 hPa 0,0 l/m W-SW 0,00 h 7 W/m 18,4 km/h (3 Bft)
06.12.2011 17:00 2,6 C 95 % 1011,3 hPa 0,4 l/m W-SW 0,00 h 0 W/m 18,5 km/h (3 Bft)
06.12.2011 18:00 2,7 C 94 % 1012,0 hPa 1,0 l/m W 0,00 h 0 W/m 17,6 km/h (3 Bft)
06.12.2011 19:00 2,1 C 95 % 1012,7 hPa 0,0 l/m W-SW 0,00 h 0 W/m 13,0 km/h (3 Bft)
06.12.2011 20:00 2,1 C 95 % 1012,8 hPa 0,0 l/m W-SW 0,00 h 0 W/m 12,9 km/h (3 Bft)
06.12.2011 21:00 2,1 C 96 % 1012,9 hPa 0,0 l/m SW 0,00 h 0 W/m 13,2 km/h (3 Bft)
06.12.2011 22:00 2,1 C 96 % 1013,1 hPa 0,0 l/m W-SW 0,00 h 0 W/m 15,0 km/h (3 Bft)
06.12.2011 23:00 2,2 C 96 % 1014,0 hPa 0,0 l/m W 0,00 h 0 W/m 10,5 km/h (2 Bft)
07.12.2011 00:00 2,3 C 96 % 1014,5 hPa 0,2 l/m W-SW 0,00 h 0 W/m 11,3 km/h (2 Bft)
07.12.2011 01:00 1,9 C 95 % 1014,1 hPa 0,0 l/m SW 0,00 h 0 W/m 12,4 km/h (3 Bft)
07.12.2011 02:00 2,2 C 96 % 1013,6 hPa 0,0 l/m W-SW 0,00 h 0 W/m 16,8 km/h (3 Bft)
07.12.2011 03:00 3,0 C 95 % 1012,8 hPa 0,0 l/m W-SW 0,00 h 0 W/m 20,2 km/h (4 Bft)
07.12.2011 04:00 3,1 C 94 % 1011,9 hPa 0,0 l/m W-SW 0,00 h 0 W/m 25,3 km/h (4 Bft)
07.12.2011 05:00 3,4 C 94 % 1011,4 hPa 0,2 l/m W-SW 0,00 h 0 W/m 30,9 km/h (5 Bft)
07.12.2011 06:00 3,7 C 93 % 1011,3 hPa 0,0 l/m W-SW 0,00 h 0 W/m 30,7 km/h (5 Bft)
07.12.2011 07:00 3,6 C 94 % 1010,5 hPa 0,6 l/m W-SW 0,00 h 0 W/m 26,8 km/h (4 Bft)
07.12.2011 08:00 3,8 C 95 % 1010,2 hPa 0,6 l/m W-SW 0,00 h 8 W/m 29,0 km/h (5 Bft)
07.12.2011 09:00 4,2 C 94 % 1010,2 hPa 0,4 l/m W-SW 0,00 h 22 W/m 29,9 km/h (5 Bft)
07.12.2011 10:00 4,7 C 93 % 1009,9 hPa 0,0 l/m W-SW 0,00 h 43 W/m 34,7 km/h (5 Bft)
07.12.2011 11:00 5,2 C 92 % 1009,2 hPa 0,2 l/m W-SW 0,00 h 76 W/m 34,6 km/h (5 Bft)
07.12.2011 12:00 5,8 C 90 % 1008,4 hPa 0,0 l/m SW 0,00 h 93 W/m 41,7 km/h (6 Bft)
07.12.2011 13:00 6,2 C 88 % 1007,8 hPa 0,0 l/m W-SW 0,00 h 80 W/m 40,9 km/h (6 Bft)
07.12.2011 14:00 6,4 C 88 % 1007,2 hPa 0,0 l/m W-SW 0,00 h 52 W/m 38,7 km/h (5 Bft)
07.12.2011 15:00 6,7 C 87 % 1007,8 hPa 0,0 l/m W-SW 0,00 h 18 W/m 41,3 km/h (6 Bft)
07.12.2011 16:00 5,9 C 91 % 1009,2 hPa 7,6 l/m W-NW 0,00 h 0 W/m 23,9 km/h (4 Bft)
07.12.2011 17:00 3,8 C 93 % 1010,7 hPa 3,4 l/m W 0,00 h 0 W/m 33,7 km/h (5 Bft)
07.12.2011 18:00 3,9 C 91 % 1011,2 hPa 0,0 l/m W 0,00 h 0 W/m 29,0 km/h (5 Bft)
07.12.2011 19:00 4,1 C 88 % 1012,2 hPa 0,0 l/m W 0,00 h 0 W/m 20,9 km/h (4 Bft)
07.12.2011 20:00 4,3 C 88 % 1012,7 hPa 0,0 l/m W-NW 0,00 h 0 W/m 22,1 km/h (4 Bft)
07.12.2011 21:00 4,6 C 87 % 1013,5 hPa 0,0 l/m W 0,00 h 0 W/m 25,3 km/h (4 Bft)
07.12.2011 22:00 4,6 C 83 % 1014,8 hPa 0,0 l/m W 0,00 h 0 W/m 25,1 km/h (4 Bft)
07.12.2011 23:00 4,4 C 79 % 1016,9 hPa 0,0 l/m W-NW 0,00 h 0 W/m 23,5 km/h (4 Bft)
08.12.2011 00:00 4,3 C 74 % 1018,1 hPa 0,0 l/m W-NW 0,00 h 0 W/m 29,0 km/h (5 Bft)
08.12.2011 01:00 4,0 C 78 % 1018,9 hPa 0,0 l/m W-NW 0,00 h 0 W/m 17,4 km/h (3 Bft)
08.12.2011 02:00 3,6 C 82 % 1020,5 hPa 0,2 l/m W 0,00 h 0 W/m 21,2 km/h (4 Bft)
08.12.2011 03:00 2,2 C 91 % 1021,6 hPa 0,2 l/m W-NW 0,00 h 0 W/m 18,2 km/h (3 Bft)
08.12.2011 04:00 2,0 C 92 % 1022,1 hPa 0,0 l/m W-SW 0,00 h 0 W/m 18,5 km/h (3 Bft)
08.12.2011 05:00 2,0 C 92 % 1023,2 hPa 0,0 l/m SW 0,00 h 0 W/m 14,8 km/h (3 Bft)
08.12.2011 06:00 2,5 C 87 % 1024,3 hPa 0,0 l/m W-SW 0,00 h 0 W/m 16,8 km/h (3 Bft)
08.12.2011 07:00 2,3 C 89 % 1025,0 hPa 0,0 l/m W-SW 0,00 h 5 W/m 13,3 km/h (3 Bft)
08.12.2011 08:00 1,8 C 89 % 1025,7 hPa 0,0 l/m W-SW 0,08 h 20 W/m 13,0 km/h (3 Bft)
08.12.2011 09:00 2,5 C 87 % 1026,3 hPa 0,0 l/m W-SW 0,25 h 66 W/m 18,1 km/h (3 Bft)
08.12.2011 10:00 3,8 C 84 % 1026,7 hPa 0,2 l/m W 0,92 h 208 W/m 21,0 km/h (4 Bft)
08.12.2011 11:00 5,0 C 76 % 1026,4 hPa 0,0 l/m W-SW 0,67 h 220 W/m 20,0 km/h (4 Bft)
08.12.2011 12:00 5,8 C 71 % 1025,9 hPa 0,0 l/m W-SW 0,67 h 281 W/m 21,1 km/h (4 Bft)
08.12.2011 13:00 6,1 C 72 % 1025,5 hPa 0,0 l/m W-SW 0,67 h 192 W/m 20,1 km/h (4 Bft)
08.12.2011 14:00 6,1 C 74 % 1024,6 hPa 0,0 l/m W-SW 0,42 h 127 W/m 18,1 km/h (3 Bft)
08.12.2011 15:00 5,2 C 78 % 1023,8 hPa 0,0 l/m W-SW 0,00 h 24 W/m 13,2 km/h (3 Bft)
08.12.2011 16:00 4,6 C 82 % 1023,2 hPa 0,0 l/m SW 0,08 h 10 W/m 9,5 km/h (2 Bft)
08.12.2011 17:00 4,0 C 84 % 1022,3 hPa 0,0 l/m W-SW 0,00 h 0 W/m 11,0 km/h (2 Bft)
08.12.2011 18:00 4,2 C 84 % 1021,5 hPa 0,0 l/m W-SW 0,00 h 0 W/m 12,6 km/h (3 Bft)
08.12.2011 19:00 4,1 C 86 % 1020,7 hPa 0,0 l/m SW 0,00 h 0 W/m 14,2 km/h (3 Bft)
08.12.2011 20:00 3,5 C 89 % 1020,0 hPa 0,0 l/m SW 0,00 h 0 W/m 10,2 km/h (2 Bft)
08.12.2011 21:00 3,4 C 90 % 1019,4 hPa 0,0 l/m S-SW 0,00 h 0 W/m 13,1 km/h (3 Bft)
08.12.2011 22:00 4,9 C 83 % 1018,5 hPa 0,0 l/m W-SW 0,00 h 0 W/m 27,2 km/h (4 Bft)
08.12.2011 23:00 5,1 C 83 % 1018,2 hPa 0,0 l/m W-SW 0,00 h 0 W/m 23,0 km/h (4 Bft)
09.12.2011 00:00 5,0 C 84 % 1017,4 hPa 0,0 l/m SW 0,00 h 0 W/m 21,4 km/h (4 Bft)
09.12.2011 01:00 5,0 C 85 % 1017,1 hPa 0,0 l/m W-SW 0,00 h 0 W/m 22,6 km/h (4 Bft)
09.12.2011 02:00 5,2 C 84 % 1016,9 hPa 0,0 l/m SW 0,00 h 0 W/m 29,8 km/h (5 Bft)
09.12.2011 03:00 5,1 C 84 % 1016,6 hPa 0,0 l/m W-SW 0,00 h 0 W/m 28,3 km/h (4 Bft)
09.12.2011 04:00 5,0 C 84 % 1015,5 hPa 0,0 l/m W 0,00 h 0 W/m 30,2 km/h (5 Bft)
09.12.2011 05:00 5,6 C 81 % 1015,2 hPa 0,0 l/m W-SW 0,00 h 0 W/m 30,1 km/h (5 Bft)
09.12.2011 06:00 6,3 C 79 % 1015,0 hPa 0,0 l/m W-SW 0,00 h 0 W/m 30,7 km/h (5 Bft)
09.12.2011 07:00 6,4 C 79 % 1014,2 hPa 0,0 l/m W-SW 0,00 h 0 W/m 32,7 km/h (5 Bft)
09.12.2011 08:00 6,9 C 79 % 1014,0 hPa 0,0 l/m SW 0,00 h 12 W/m 32,1 km/h (5 Bft)
09.12.2011 09:00 7,8 C 78 % 1014,3 hPa 0,0 l/m W-SW 0,00 h 57 W/m 35,7 km/h (5 Bft)
09.12.2011 10:00 8,4 C 76 % 1014,2 hPa 0,0 l/m SW 0,00 h 54 W/m 32,1 km/h (5 Bft)
09.12.2011 11:00 8,7 C 76 % 1014,1 hPa 0,0 l/m W-SW 0,00 h 56 W/m 28,8 km/h (5 Bft)
09.12.2011 12:00 9,1 C 76 % 1013,8 hPa 0,0 l/m W-SW 0,00 h 56 W/m 23,2 km/h (4 Bft)
09.12.2011 13:00 9,6 C 75 % 1013,4 hPa 0,0 l/m W-SW 0,00 h 61 W/m 25,2 km/h (4 Bft)
09.12.2011 14:00 9,7 C 75 % 1012,8 hPa 0,0 l/m SW 0,00 h 32 W/m 22,9 km/h (4 Bft)
09.12.2011 15:00 9,7 C 74 % 1012,6 hPa 0,0 l/m W-SW 0,00 h 16 W/m 22,1 km/h (4 Bft)
09.12.2011 16:00 9,1 C 81 % 1012,8 hPa 0,0 l/m W-SW 0,00 h 5 W/m 21,7 km/h (4 Bft)
09.12.2011 17:00 8,3 C 86 % 1012,8 hPa 0,0 l/m SW 0,00 h 0 W/m 16,4 km/h (3 Bft)
09.12.2011 18:00 8,1 C 87 % 1012,5 hPa 0,0 l/m SW 0,00 h 0 W/m 18,8 km/h (3 Bft)
09.12.2011 19:00 8,1 C 88 % 1012,5 hPa 0,2 l/m W-SW 0,00 h 0 W/m 23,0 km/h (4 Bft)
09.12.2011 20:00 7,9 C 91 % 1012,5 hPa 0,4 l/m W-SW 0,00 h 0 W/m 24,4 km/h (4 Bft)
09.12.2011 21:00 7,7 C 93 % 1012,7 hPa 1,0 l/m W-SW 0,00 h 0 W/m 20,8 km/h (4 Bft)
09.12.2011 22:00 6,7 C 92 % 1013,1 hPa 2,8 l/m N-NW 0,00 h 0 W/m 9,2 km/h (2 Bft)
09.12.2011 23:00 5,8 C 94 % 1013,4 hPa 3,2 l/m N 0,00 h 0 W/m 4,7 km/h (1 Bft)
10.12.2011 00:00 5,5 C 95 % 1013,3 hPa 2,8 l/m N-NW 0,00 h 0 W/m 5,1 km/h (1 Bft)
10.12.2011 01:00 4,1 C 94 % 1013,2 hPa 1,8 l/m NO 0,00 h 0 W/m 6,5 km/h (2 Bft)
10.12.2011 02:00 3,3 C 95 % 1012,9 hPa 2,0 l/m NO 0,00 h 0 W/m 5,5 km/h (1 Bft)
10.12.2011 03:00 3,0 C 96 % 1012,8 hPa 1,4 l/m NO 0,00 h 0 W/m 4,8 km/h (1 Bft)
10.12.2011 04:00 2,9 C 96 % 1012,7 hPa 1,6 l/m NO 0,00 h 0 W/m 3,9 km/h (1 Bft)
10.12.2011 05:00 2,8 C 97 % 1012,7 hPa 1,6 l/m NO 0,00 h 0 W/m 3,5 km/h (1 Bft)
10.12.2011 06:00 2,8 C 97 % 1013,2 hPa 1,2 l/m NO 0,00 h 0 W/m 3,7 km/h (1 Bft)
10.12.2011 07:00 2,7 C 97 % 1013,7 hPa 1,8 l/m N 0,00 h 0 W/m 0,3 km/h (0 Bft)
10.12.2011 08:00 2,8 C 97 % 1014,2 hPa 1,6 l/m N 0,00 h 7 W/m 0,0 km/h (0 Bft)
10.12.2011 09:00 2,9 C 97 % 1014,6 hPa 0,6 l/m N 0,00 h 16 W/m 2,7 km/h (1 Bft)
10.12.2011 10:00 3,2 C 98 % 1015,1 hPa 0,6 l/m N 0,00 h 25 W/m 1,1 km/h (0 Bft)
10.12.2011 11:00 3,4 C 98 % 1015,0 hPa 0,6 l/m N 0,00 h 27 W/m 0,5 km/h (0 Bft)
10.12.2011 12:00 3,7 C 98 % 1015,0 hPa 1,2 l/m NO 0,00 h 20 W/m 1,9 km/h (1 Bft)
10.12.2011 13:00 3,6 C 98 % 1014,9 hPa 1,0 l/m NO 0,00 h 25 W/m 4,3 km/h (1 Bft)
10.12.2011 14:00 3,3 C 98 % 1014,8 hPa 0,2 l/m N 0,00 h 17 W/m 0,5 km/h (0 Bft)
10.12.2011 15:00 3,3 C 98 % 1015,0 hPa 0,2 l/m N 0,00 h 10 W/m 0,7 km/h (0 Bft)
10.12.2011 16:00 3,3 C 98 % 1015,4 hPa 0,4 l/m N 0,00 h 5 W/m 0,0 km/h (0 Bft)
10.12.2011 17:00 3,2 C 98 % 1015,9 hPa 0,4 l/m N 0,00 h 0 W/m 0,5 km/h (0 Bft)
10.12.2011 18:00 3,1 C 98 % 1016,5 hPa 0,4 l/m N 0,00 h 0 W/m 0,1 km/h (0 Bft)
10.12.2011 19:00 3,1 C 98 % 1017,0 hPa 0,4 l/m N 0,00 h 0 W/m 1,2 km/h (1 Bft)
10.12.2011 20:00 3,1 C 98 % 1017,3 hPa 0,2 l/m NO 0,00 h 0 W/m 1,6 km/h (1 Bft)
10.12.2011 21:00 3,0 C 98 % 1017,6 hPa 0,0 l/m N 0,00 h 0 W/m 3,6 km/h (1 Bft)
10.12.2011 22:00 2,9 C 98 % 1017,8 hPa 0,0 l/m NO 0,00 h 0 W/m 1,9 km/h (1 Bft)
10.12.2011 23:00 2,8 C 98 % 1017,9 hPa 0,2 l/m N 0,00 h 0 W/m 0,4 km/h (0 Bft)
11.12.2011 00:00 2,8 C 98 % 1018,1 hPa 0,2 l/m N 0,00 h 0 W/m 1,3 km/h (1 Bft)
11.12.2011 01:00 2,7 C 98 % 1018,1 hPa 0,2 l/m N 0,00 h 0 W/m 2,3 km/h (1 Bft)
11.12.2011 02:00 2,6 C 98 % 1018,0 hPa 0,4 l/m NO 0,00 h 0 W/m 3,1 km/h (1 Bft)
11.12.2011 03:00 2,3 C 98 % 1018,0 hPa 0,2 l/m NO 0,00 h 0 W/m 4,1 km/h (1 Bft)
11.12.2011 04:00 1,9 C 98 % 1017,9 hPa 0,0 l/m N 0,00 h 0 W/m 2,8 km/h (1 Bft)
11.12.2011 05:00 1,7 C 98 % 1017,7 hPa 0,0 l/m N 0,00 h 0 W/m 2,5 km/h (1 Bft)
11.12.2011 06:00 1,7 C 98 % 1017,7 hPa 0,0 l/m N 0,00 h 0 W/m 2,3 km/h (1 Bft)
11.12.2011 07:00 1,6 C 98 % 1018,0 hPa 0,0 l/m N 0,00 h 0 W/m 3,3 km/h (1 Bft)
11.12.2011 08:00 1,4 C 98 % 1018,2 hPa 0,0 l/m N 0,00 h 8 W/m 3,2 km/h (1 Bft)
11.12.2011 09:00 1,7 C 98 % 1018,3 hPa 0,0 l/m NO 0,00 h 19 W/m 4,1 km/h (1 Bft)
11.12.2011 10:00 2,0 C 98 % 1018,3 hPa 0,0 l/m NO 0,00 h 33 W/m 4,0 km/h (1 Bft)
11.12.2011 11:00 2,4 C 98 % 1017,8 hPa 0,0 l/m N 0,00 h 45 W/m 2,4 km/h (1 Bft)
11.12.2011 12:00 2,9 C 98 % 1017,0 hPa 0,0 l/m NO 0,00 h 62 W/m 3,3 km/h (1 Bft)
11.12.2011 13:00 3,6 C 99 % 1016,4 hPa 0,0 l/m NO 0,00 h 75 W/m 4,0 km/h (1 Bft)
11.12.2011 14:00 4,1 C 98 % 1015,9 hPa 0,0 l/m W-NW 0,00 h 38 W/m 5,3 km/h (1 Bft)
11.12.2011 15:00 4,3 C 98 % 1015,7 hPa 0,0 l/m W 0,00 h 23 W/m 5,5 km/h (1 Bft)
11.12.2011 16:00 4,2 C 97 % 1015,6 hPa 0,0 l/m W 0,00 h 5 W/m 4,4 km/h (1 Bft)
11.12.2011 17:00 4,0 C 97 % 1015,6 hPa 0,0 l/m W 0,00 h 0 W/m 5,3 km/h (1 Bft)
11.12.2011 18:00 3,8 C 97 % 1015,7 hPa 0,0 l/m SW 0,00 h 0 W/m 9,0 km/h (2 Bft)
11.12.2011 19:00 3,6 C 97 % 1015,8 hPa 0,0 l/m SW 0,00 h 0 W/m 8,9 km/h (2 Bft)
11.12.2011 20:00 3,6 C 98 % 1015,4 hPa 0,0 l/m SW 0,00 h 0 W/m 8,4 km/h (2 Bft)
11.12.2011 21:00 3,6 C 98 % 1015,1 hPa 0,0 l/m SW 0,00 h 0 W/m 8,0 km/h (2 Bft)
11.12.2011 22:00 3,7 C 98 % 1014,8 hPa 0,0 l/m SW 0,00 h 0 W/m 5,8 km/h (1 Bft)
11.12.2011 23:00 3,7 C 98 % 1014,2 hPa 0,0 l/m SW 0,00 h 0 W/m 9,1 km/h (2 Bft)
Min-Datum _ 06.12.11 08.12.11 05.12.11 - - - - 10.12.11
_ Min-Zeit 01:50 13:00 02:30 - - - - 00:20
Minimum _ 1,3 C 69 % 995,2 hPa - - - - 0,0 km/h (0 Bft)
Max-Datum _ 05.12.11 11.12.11 08.12.11 07.12.11 - 05.12.11 05.12.11 05.12.11
_ Max-Zeit 00:15 13:10 10:20 16:35 - 12:15 12:25 00:55
Maximum _ 10,8 C 99 % 1026,9 hPa 7,6 l/m - 0,08 h 462 W/m 64,4 km/h
SW (8 Bft)
Durchschnitt _ 4,0 C 90 % 1013,9 hPa #60,8 l/m W-SW #5:05 h 53 W/m 16,9 km/h (3 Bft)